Time;durP1;ratioP1;P1;durP2;ratioP2;P2;SDS_P1;SDS_P2;PMS_P1;PMS_P2;Temp;Humidity;BMP_temperature;BMP_pressure;BME280_temperature;BME280_humidity;BME280_pressure;Samples;Min_cycle;Max_cycle;Signal;HPM_P1;HPM_P2
2021/08/18 04:17:21;;;;;;;24.98;14.50;;;;;;;14.40;95.04;98981.13;5083000;23;20450;-72
2021/08/18 04:19:46;;;;;;;24.33;14.25;;;;;;;14.38;95.49;98985.56;4974847;28;20043;-77
2021/08/18 04:22:12;;;;;;;23.98;13.60;;;;;;;14.38;96.29;98980.34;4974375;28;20037;-77
2021/08/18 04:24:37;;;;;;;25.70;14.27;;;;;;;14.43;94.33;98983.66;4974652;28;20027;-77
2021/08/18 04:27:03;;;;;;;24.90;13.32;;;;;;;14.49;94.86;98982.66;4974406;28;20059;-76
2021/08/18 04:29:28;;;;;;;23.02;11.98;;;;;;;14.42;95.01;98976.75;4979639;23;20054;-72
2021/08/18 04:31:54;;;;;;;26.25;13.63;;;;;;;14.35;95.27;98983.03;4954489;28;20031;-72
2021/08/18 04:34:19;;;;;;;20.67;12.73;;;;;;;14.51;94.63;98986.94;4954592;28;20109;-72
2021/08/18 04:36:45;;;;;;;20.85;12.68;;;;;;;14.63;95.39;98980.47;4954498;28;20035;-72
2021/08/18 04:39:10;;;;;;;25.50;14.07;;;;;;;14.55;95.33;98985.94;4953444;28;20042;-72
2021/08/18 04:41:35;;;;;;;23.80;13.57;;;;;;;14.43;94.16;98982.81;4941221;28;20039;-72
2021/08/18 04:44:01;;;;;;;24.88;13.95;;;;;;;14.59;95.27;98990.13;4943002;28;20030;-72
2021/08/18 04:46:27;;;;;;;26.23;11.75;;;;;;;14.39;94.26;98982.88;4941091;28;20548;-72
2021/08/18 04:48:53;;;;;;;20.13;12.55;;;;;;;14.50;95.64;98993.00;4942800;28;20408;-72
2021/08/18 04:51:18;;;;;;;22.83;12.68;;;;;;;14.71;94.53;98982.84;4941727;28;20066;-72
2021/08/18 04:53:43;;;;;;;19.02;12.25;;;;;;;14.81;91.07;98981.66;4942305;28;20750;-72
2021/08/18 04:56:09;;;;;;;18.27;11.63;;;;;;;14.99;91.28;98986.28;4941848;28;20022;-73
2021/08/18 04:58:34;;;;;;;20.05;12.40;;;;;;;14.76;93.42;98988.78;4947742;28;20551;-72
2021/08/18 05:00:59;;;;;;;26.70;12.45;;;;;;;14.61;93.87;98997.94;4951386;28;20035;-72
2021/08/18 05:03:25;;;;;;;24.33;11.40;;;;;;;14.78;92.70;98994.78;4949670;28;20034;-74
2021/08/18 05:05:50;;;;;;;21.67;12.10;;;;;;;15.10;93.11;98992.00;4951665;28;20034;-73
2021/08/18 05:08:15;;;;;;;15.50;10.55;;;;;;;14.89;90.70;98992.66;4951964;28;20031;-74
2021/08/18 05:10:41;;;;;;;16.15;9.50;;;;;;;14.86;89.81;98995.41;4951671;28;20031;-74
2021/08/18 05:13:06;;;;;;;15.85;9.15;;;;;;;14.89;88.83;99006.59;4951906;28;20122;-74
2021/08/18 05:15:32;;;;;;;15.30;10.05;;;;;;;14.78;88.10;99000.00;4951692;28;20046;-74
2021/08/18 05:17:57;;;;;;;15.38;9.48;;;;;;;14.57;88.33;99007.59;4951468;28;20048;-74
2021/08/18 05:20:23;;;;;;;15.73;10.05;;;;;;;14.37;90.02;99005.56;4951197;28;20030;-72
2021/08/18 05:22:48;;;;;;;14.63;10.10;;;;;;;14.18;90.11;99006.13;4951333;28;20031;-72
2021/08/18 05:25:16;;;;;;;17.88;9.88;;;;;;;14.11;90.01;99008.91;4951405;28;20122;-72
2021/08/18 05:27:42;;;;;;;17.95;10.48;;;;;;;14.09;92.03;99010.72;4951013;28;20031;-72
2021/08/18 05:30:10;;;;;;;17.48;10.40;;;;;;;14.08;92.63;99009.00;4951380;28;20373;-73
2021/08/18 05:32:36;;;;;;;17.75;10.98;;;;;;;14.17;92.12;99007.00;4950788;28;20507;-72
2021/08/18 05:35:03;;;;;;;16.55;9.80;;;;;;;14.22;92.47;99015.59;4950798;28;20488;-72
2021/08/18 05:37:29;;;;;;;20.73;10.00;;;;;;;14.20;91.02;99012.16;4951493;28;20118;-72
2021/08/18 05:39:54;;;;;;;17.80;10.07;;;;;;;14.24;91.66;99013.78;4951247;28;20091;-72
2021/08/18 05:42:19;;;;;;;14.00;8.80;;;;;;;14.18;92.11;99013.97;4950977;28;20038;-72
2021/08/18 05:44:45;;;;;;;14.50;8.50;;;;;;;14.07;92.51;99017.72;4951311;28;20039;-72
2021/08/18 05:47:10;;;;;;;16.73;8.73;;;;;;;13.97;93.28;99016.25;4951191;28;20038;-73
2021/08/18 05:49:35;;;;;;;14.43;8.05;;;;;;;13.94;94.31;99010.28;4951134;28;20027;-72
2021/08/18 05:52:01;;;;;;;13.77;9.20;;;;;;;13.92;94.24;99018.13;4951146;28;20033;-72
2021/08/18 05:54:26;;;;;;;17.05;9.32;;;;;;;14.02;96.36;99019.59;4951075;28;20073;-72
2021/08/18 05:56:52;;;;;;;20.23;9.23;;;;;;;14.06;96.07;99025.56;4951435;28;20059;-72
2021/08/18 05:59:18;;;;;;;18.38;9.48;;;;;;;13.96;96.27;99019.75;4950771;28;20053;-72
2021/08/18 06:01:43;;;;;;;17.98;9.52;;;;;;;14.01;97.35;99023.09;4950503;28;20381;-73
2021/08/18 06:04:08;;;;;;;16.60;9.48;;;;;;;14.18;97.61;99019.16;4950394;28;20971;-72
2021/08/18 06:06:33;;;;;;;14.70;9.40;;;;;;;14.18;97.14;99020.03;4951581;28;20365;-72
2021/08/18 06:08:59;;;;;;;14.98;8.57;;;;;;;14.42;95.84;99023.66;4950938;28;20033;-72
2021/08/18 06:11:25;;;;;;;14.73;8.38;;;;;;;14.61;95.54;99024.00;4950974;28;20036;-72
2021/08/18 06:13:50;;;;;;;15.07;9.15;;;;;;;14.38;95.32;99019.44;4951000;28;20110;-73
2021/08/18 06:16:15;;;;;;;17.80;9.18;;;;;;;14.70;96.20;99017.63;4951104;28;20229;-72
2021/08/18 06:18:41;;;;;;;19.13;9.50;;;;;;;14.25;96.38;99023.28;4951101;28;20105;-72
2021/08/18 06:21:06;;;;;;;16.98;9.00;;;;;;;14.24;96.73;99018.97;4950561;28;20038;-73
2021/08/18 06:23:33;;;;;;;15.05;8.70;;;;;;;14.41;95.58;99016.75;4951044;28;20058;-72
2021/08/18 06:25:58;;;;;;;21.17;8.35;;;;;;;14.70;94.92;99017.63;4951052;28;20038;-72
2021/08/18 06:28:25;;;;;;;17.08;9.40;;;;;;;14.56;93.46;99016.31;4950678;28;20027;-72
2021/08/18 06:30:51;;;;;;;12.55;8.35;;;;;;;14.55;93.39;99014.63;4949330;28;20054;-72
2021/08/18 06:33:16;;;;;;;18.25;9.35;;;;;;;14.50;94.70;99016.47;4950309;28;20070;-72
2021/08/18 06:35:42;;;;;;;17.67;8.75;;;;;;;14.71;93.97;99008.94;4950749;28;20118;-72
2021/08/18 06:38:07;;;;;;;13.40;8.68;;;;;;;15.13;92.58;99012.78;4950727;28;20034;-72
2021/08/18 06:40:32;;;;;;;13.88;7.88;;;;;;;14.95;92.37;99010.75;4952899;28;20031;-72
2021/08/18 06:42:58;;;;;;;12.75;7.93;;;;;;;15.09;92.68;99010.31;4954197;28;20055;-72
2021/08/18 06:45:23;;;;;;;15.40;8.77;;;;;;;15.44;90.28;99009.16;4954474;28;20052;-73
2021/08/18 06:47:49;;;;;;;13.45;7.93;;;;;;;15.38;88.81;99011.97;4954444;28;20031;-74
2021/08/18 06:50:14;;;;;;;12.73;8.35;;;;;;;15.27;88.75;99019.28;4954212;28;20082;-73
2021/08/18 06:52:40;;;;;;;15.88;8.77;;;;;;;15.14;90.36;99016.25;4954076;28;20038;-73
2021/08/18 06:55:07;;;;;;;15.88;8.90;;;;;;;15.24;89.65;99024.63;4954372;28;20161;-72
2021/08/18 06:57:32;;;;;;;14.73;8.23;;;;;;;15.13;89.11;99012.78;4953806;28;20062;-73
2021/08/18 06:59:58;;;;;;;15.27;8.60;;;;;;;15.23;89.63;99017.69;4949035;28;20032;-73
2021/08/18 07:02:23;;;;;;;14.27;9.07;;;;;;;15.30;90.78;99020.03;4944607;28;20062;-78
2021/08/18 07:04:48;;;;;;;13.30;8.13;;;;;;;15.45;89.15;99010.84;4949068;28;20042;-78
2021/08/18 07:07:14;;;;;;;13.77;9.23;;;;;;;15.51;88.89;99008.00;4953346;28;20065;-72
2021/08/18 07:09:39;;;;;;;14.77;8.75;;;;;;;15.11;89.34;99022.41;4951630;28;20118;-73
2021/08/18 07:12:05;;;;;;;13.35;8.75;;;;;;;15.50;88.97;99011.53;4953070;28;20126;-79
2021/08/18 07:14:31;;;;;;;18.23;8.25;;;;;;;16.06;85.89;99011.34;4953683;28;20027;-78
2021/08/18 07:16:56;;;;;;;15.95;8.48;;;;;;;15.82;87.40;99014.84;4953025;28;20496;-72
2021/08/18 07:19:21;;;;;;;13.05;9.20;;;;;;;15.60;85.92;99012.91;4953676;28;20031;-72
2021/08/18 07:21:47;;;;;;;17.48;8.85;;;;;;;16.10;84.12;99015.56;4953422;28;20059;-78
2021/08/18 07:24:12;;;;;;;13.23;8.55;;;;;;;16.38;85.06;99007.50;4953538;28;20061;-73
2021/08/18 07:26:37;;;;;;;12.50;7.70;;;;;;;16.57;84.23;99012.88;4953479;28;20027;-72
2021/08/18 07:29:03;;;;;;;16.10;9.45;;;;;;;16.24;84.34;99008.94;4952047;28;20066;-72
2021/08/18 07:31:29;;;;;;;15.60;8.98;;;;;;;16.61;83.52;99009.25;4953477;28;20445;-72
2021/08/18 07:33:54;;;;;;;14.85;8.38;;;;;;;15.81;86.65;99005.25;4953127;28;20031;-78
2021/08/18 07:36:20;;;;;;;12.20;8.65;;;;;;;15.85;86.46;98997.25;4953243;28;20034;-77
2021/08/18 07:38:45;;;;;;;15.60;8.35;;;;;;;16.46;84.83;99004.63;4952397;28;20096;-78
2021/08/18 07:41:11;;;;;;;14.20;8.30;;;;;;;16.95;80.97;98995.72;4952501;28;20157;-78
2021/08/18 07:43:36;;;;;;;16.27;8.77;;;;;;;17.21;81.27;98988.53;4953199;28;20039;-72
2021/08/18 07:46:02;;;;;;;12.98;8.45;;;;;;;17.17;80.04;98998.31;4952714;28;20043;-79
2021/08/18 07:48:29;;;;;;;11.55;8.02;;;;;;;17.17;81.44;99000.94;4953161;28;20023;-79
2021/08/18 07:50:54;;;;;;;15.48;8.52;;;;;;;17.13;82.50;98996.75;4950082;28;20034;-78
2021/08/18 07:53:20;;;;;;;14.15;8.77;;;;;;;16.93;82.61;98994.09;4952734;28;20051;-78
2021/08/18 07:55:45;;;;;;;10.52;7.85;;;;;;;17.16;81.02;99001.88;4953058;28;20023;-74
2021/08/18 07:58:10;;;;;;;13.52;8.60;;;;;;;17.33;78.70;98997.69;4952144;28;20027;-73
2021/08/18 08:00:39;;;;;;;11.10;8.13;;;;;;;17.55;78.21;99002.84;4952208;28;20046;-79
2021/08/18 08:03:04;;;;;;;10.15;7.50;;;;;;;17.78;79.35;99000.13;4947730;28;20117;-80
2021/08/18 08:05:30;;;;;;;14.50;8.65;;;;;;;17.82;76.52;98995.59;4952260;28;20033;-73
2021/08/18 08:07:55;;;;;;;11.25;8.13;;;;;;;17.73;78.19;98992.44;4953030;28;20061;-79
2021/08/18 08:10:21;;;;;;;14.73;7.95;;;;;;;17.88;79.00;98995.31;4952278;28;20340;-80
2021/08/18 08:12:46;;;;;;;11.50;7.53;;;;;;;18.39;72.72;99001.78;4952593;28;20030;-73
2021/08/18 08:15:12;;;;;;;16.42;7.07;;;;;;;18.50;74.56;98994.25;4952107;28;20106;-73
2021/08/18 08:17:38;;;;;;;8.88;6.50;;;;;;;18.68;72.23;98993.41;4952699;28;20162;-73
2021/08/18 08:20:05;;;;;;;10.30;7.13;;;;;;;18.62;72.46;98996.31;4951538;28;20113;-73
2021/08/18 08:22:30;;;;;;;10.15;6.38;;;;;;;18.87;72.34;98995.16;4952339;28;20046;-73
2021/08/18 08:24:55;;;;;;;9.30;5.72;;;;;;;19.18;70.88;98990.09;4951764;28;20047;-73
2021/08/18 08:27:21;;;;;;;6.60;5.00;;;;;;;19.32;69.83;98989.41;4951794;28;20052;-73
2021/08/18 08:29:46;;;;;;;5.55;4.70;;;;;;;19.36;66.78;98995.38;4952324;28;20404;-73
2021/08/18 08:32:12;;;;;;;7.82;4.80;;;;;;;19.43;68.45;98987.06;4952117;28;20503;-73
2021/08/18 08:34:38;;;;;;;10.70;5.57;;;;;;;19.80;67.55;98987.00;4951800;28;20027;-74
2021/08/18 08:37:04;;;;;;;7.82;5.22;;;;;;;19.42;68.82;98992.41;4951467;28;20025;-73
2021/08/18 08:39:29;;;;;;;6.68;4.65;;;;;;;19.32;68.50;98993.81;4952050;28;20496;-73
2021/08/18 08:41:54;;;;;;;6.93;5.00;;;;;;;18.86;68.65;98998.72;4952178;28;20555;-73
2021/08/18 08:44:22;;;;;;;7.63;4.95;;;;;;;18.44;70.84;98994.53;4952353;28;20030;-74
2021/08/18 08:46:49;;;;;;;7.40;4.78;;;;;;;18.32;72.05;98997.72;4952139;28;20034;-74
2021/08/18 08:49:16;;;;;;;6.25;4.45;;;;;;;17.82;73.63;99000.84;4950819;28;20081;-77
2021/08/18 08:51:46;;;;;;;6.97;3.78;;;;;;;17.81;73.86;98996.53;4951721;28;20034;-72
2021/08/18 08:54:11;;;;;;;8.40;3.70;;;;;;;17.76;74.57;98996.72;4951586;28;20449;-72
2021/08/18 08:56:37;;;;;;;4.25;3.42;;;;;;;17.79;74.05;99000.97;4951969;28;20031;-72
2021/08/18 08:59:02;;;;;;;6.70;4.32;;;;;;;17.87;75.49;98993.63;4950799;28;20504;-73
2021/08/18 09:02:01;;;;;;;4.70;3.50;;;;;;;17.36;76.80;98997.56;4950654;28;20042;-72
2021/08/18 09:04:35;;;;;;;7.03;4.40;;;;;;;17.48;76.96;99003.13;4950916;28;20564;-78
2021/08/18 09:07:07;;;;;;;5.07;3.60;;;;;;;17.40;77.70;99004.34;4952004;28;20726;-78
2021/08/18 09:09:33;;;;;;;7.65;4.20;;;;;;;17.16;80.74;99006.22;4951449;28;20031;-72
2021/08/18 09:12:06;;;;;;;5.53;4.78;;;;;;;17.30;78.75;99003.03;4950070;28;20027;-78
2021/08/18 09:14:31;;;;;;;9.20;4.38;;;;;;;17.20;81.53;99008.66;4951395;28;20477;-73
2021/08/18 09:16:57;;;;;;;6.50;4.40;;;;;;;17.17;80.70;99003.56;4951846;28;20035;-72
2021/08/18 09:19:40;;;;;;;5.35;4.28;;;;;;;17.43;80.88;99001.59;4951154;28;20515;-72
2021/08/18 09:22:06;;;;;;;3.47;2.80;;;;;;;17.56;78.24;98999.34;4949505;28;20031;-72
2021/08/18 09:24:33;;;;;;;4.68;2.70;;;;;;;17.13;77.95;98995.88;4951165;28;20042;-78
2021/08/18 09:27:08;;;;;;;6.35;2.25;;;;;;;17.31;78.58;98997.75;4950945;28;20432;-72
2021/08/18 09:29:45;;;;;;;2.33;2.10;;;;;;;17.60;77.89;98996.53;4950332;28;20035;-73
2021/08/18 09:32:19;;;;;;;2.78;1.90;;;;;;;17.57;76.25;99001.88;4950812;28;20030;-78
2021/08/18 09:34:56;;;;;;;1.80;1.50;;;;;;;17.71;77.59;98994.28;4949623;28;20026;-72
2021/08/18 09:37:23;;;;;;;2.10;1.90;;;;;;;17.39;79.75;98989.56;4951435;28;20027;-73
2021/08/18 09:39:49;;;;;;;2.75;1.88;;;;;;;17.20;78.95;98995.56;4951100;28;20516;-73
2021/08/18 09:42:26;;;;;;;2.63;1.50;;;;;;;17.05;80.71;98997.97;4951197;28;20034;-72
2021/08/18 09:45:07;;;;;;;3.13;2.03;;;;;;;16.83;79.91;98995.38;4950260;28;20125;-72
2021/08/18 09:47:32;;;;;;;2.90;1.40;;;;;;;16.79;81.82;98996.41;4950838;28;20029;-72
2021/08/18 09:49:58;;;;;;;2.17;1.52;;;;;;;16.86;81.25;98997.84;4950847;28;20023;-73
2021/08/18 09:52:24;;;;;;;2.10;1.35;;;;;;;16.77;81.18;99001.69;4947829;28;20023;-72
2021/08/18 09:54:50;;;;;;;1.65;1.30;;;;;;;16.63;84.00;99004.81;4950183;28;20042;-73
2021/08/18 09:57:15;;;;;;;1.55;1.25;;;;;;;16.59;85.60;99005.84;4948327;28;20031;-73
2021/08/18 09:59:43;;;;;;;1.10;1.00;;;;;;;16.61;85.84;99011.88;4950525;28;20039;-78
2021/08/18 10:02:09;;;;;;;1.45;1.13;;;;;;;16.61;87.33;99009.25;4950744;28;20286;-73
2021/08/18 10:04:35;;;;;;;2.63;1.00;;;;;;;16.61;86.20;99006.63;4949870;28;20055;-78
2021/08/18 10:07:01;;;;;;;1.20;0.98;;;;;;;16.69;86.24;99007.19;4951177;28;20126;-73
2021/08/18 10:09:27;;;;;;;1.95;0.70;;;;;;;16.91;82.69;99007.22;4949593;28;20086;-73
2021/08/18 10:11:52;;;;;;;1.40;1.13;;;;;;;17.01;84.03;99005.06;4950657;28;20027;-79
2021/08/18 10:14:21;;;;;;;1.90;0.85;;;;;;;17.27;82.06;99011.03;4952130;28;20038;-78
2021/08/18 10:16:46;;;;;;;1.13;0.82;;;;;;;17.51;81.90;99002.16;4954553;28;20061;-78
2021/08/18 10:19:12;;;;;;;0.90;0.90;;;;;;;17.77;80.01;99008.06;4954004;28;20403;-78
2021/08/18 10:21:38;;;;;;;2.72;0.73;;;;;;;17.69;78.88;99005.72;4953741;28;20067;-73
2021/08/18 10:24:07;;;;;;;0.80;0.77;;;;;;;18.04;78.70;99004.22;4950057;28;20578;-73
2021/08/18 10:26:36;;;;;;;0.98;0.90;;;;;;;18.38;76.76;99002.69;4945268;28;20035;-78
2021/08/18 10:29:55;;;;;;;1.52;0.82;;;;;;;19.58;71.53;98993.38;4954484;28;20042;-73
2021/08/18 10:32:02;;;;;;;;;;;;;;;22.05;62.39;98988.28;4952435;28;20313;-73
2021/08/18 10:34:36;;;;;;;0.80;0.50;;;;;;;23.57;56.57;98979.34;4953687;28;20005;-78
2021/08/18 10:37:05;;;;;;;0.60;0.50;;;;;;;24.63;54.35;98983.41;4954537;28;20787;-79
2021/08/18 10:39:53;;;;;;;1.10;1.00;;;;;;;26.06;49.18;98979.72;4953928;28;20062;-73
2021/08/18 10:42:42;;;;;;;0.88;0.57;;;;;;;27.22;47.46;98980.13;4953641;28;20157;-79
2021/08/18 10:45:36;;;;;;;0.57;0.40;;;;;;;24.86;49.13;98977.28;4953768;28;20078;-73
2021/08/18 10:48:03;;;;;;;0.70;0.50;;;;;;;22.84;56.23;98996.47;4947851;28;20035;-73
2021/08/18 10:50:41;;;;;;;0.75;0.68;;;;;;;19.75;64.83;98995.97;4953610;28;20033;-73
2021/08/18 10:53:26;;;;;;;0.70;0.70;;;;;;;19.44;68.60;98994.06;4953365;28;20026;-79
2021/08/18 10:55:51;;;;;;;1.27;0.95;;;;;;;18.16;73.32;98994.94;4953662;28;20046;-78
2021/08/18 10:58:27;;;;;;;2.13;1.00;;;;;;;18.11;72.49;98992.53;4953800;28;20039;-73
2021/08/18 11:00:53;;;;;;;1.13;0.95;;;;;;;18.40;73.93;98995.59;4953602;28;20035;-73
2021/08/18 11:03:31;;;;;;;0.75;0.75;;;;;;;18.52;74.64;98995.03;4952454;28;20388;-73
2021/08/18 11:05:58;;;;;;;1.60;0.85;;;;;;;19.16;71.85;98994.59;4953078;28;20031;-73
2021/08/18 11:08:24;;;;;;;1.17;1.08;;;;;;;19.58;69.43;98982.84;4950082;28;20066;-73
2021/08/18 11:10:50;;;;;;;1.40;1.02;;;;;;;19.90;68.76;98981.19;4953418;28;21079;-79
2021/08/18 11:13:15;;;;;;;0.95;0.95;;;;;;;19.97;66.25;98977.31;4952194;28;20401;-73
2021/08/18 11:15:40;;;;;;;1.38;1.27;;;;;;;18.64;70.47;98986.56;4952931;28;20097;-78
2021/08/18 11:18:07;;;;;;;1.77;0.93;;;;;;;19.43;68.19;98975.72;4952945;28;20583;-73
2021/08/18 11:20:33;;;;;;;1.38;1.27;;;;;;;19.51;66.71;98974.41;4953658;28;20027;-79
2021/08/18 11:23:10;;;;;;;1.00;1.00;;;;;;;19.31;65.91;98985.09;4953553;28;20062;-73
2021/08/18 11:25:44;;;;;;;0.95;0.88;;;;;;;19.43;67.39;98979.19;4952465;28;20031;-79
2021/08/18 11:28:22;;;;;;;1.05;1.00;;;;;;;19.04;67.29;98979.41;4953021;28;20038;-78
2021/08/18 11:31:00;;;;;;;1.27;1.05;;;;;;;18.47;69.44;98978.66;4953129;28;20532;-79
2021/08/18 11:33:27;;;;;;;0.90;0.90;;;;;;;18.72;69.62;98975.75;4952546;28;20493;-78
2021/08/18 11:35:53;;;;;;;1.00;0.90;;;;;;;20.34;65.23;98969.19;4953317;28;20069;-78
2021/08/18 11:38:19;;;;;;;3.90;1.02;;;;;;;21.19;62.25;98958.28;4952843;28;20027;-73
2021/08/18 11:40:48;;;;;;;1.50;0.95;;;;;;;23.55;53.90;98945.06;4952541;28;20042;-78
2021/08/18 11:43:13;;;;;;;1.38;1.13;;;;;;;23.08;54.93;98966.78;4952187;28;20114;-79
2021/08/18 11:45:39;;;;;;;1.40;1.30;;;;;;;22.66;54.82;98965.09;4953165;28;20419;-79
2021/08/18 11:48:09;;;;;;;3.47;3.15;;;;;;;21.35;57.77;98966.16;4953191;28;20035;-79
2021/08/18 11:50:36;;;;;;;1.63;1.25;;;;;;;19.61;62.94;98973.97;4952905;28;20049;-78
2021/08/18 11:53:04;;;;;;;1.63;1.08;;;;;;;19.54;64.91;98973.41;4951454;28;20062;-78
2021/08/18 11:55:31;;;;;;;1.23;1.10;;;;;;;19.76;65.11;98974.00;4951274;28;20440;-78
2021/08/18 11:58:08;;;;;;;1.45;1.00;;;;;;;19.69;65.30;98975.28;4952877;28;21089;-79
2021/08/18 12:00:34;;;;;;;1.58;1.48;;;;;;;19.92;64.67;98967.94;4952508;28;20024;-79
2021/08/18 12:03:01;;;;;;;2.70;1.25;;;;;;;19.95;65.53;98962.53;4951101;28;20098;-78
2021/08/18 12:05:31;;;;;;;2.88;1.15;;;;;;;19.83;63.98;98964.03;4952106;28;20031;-73
2021/08/18 12:08:07;;;;;;;1.65;1.30;;;;;;;19.77;65.07;98967.84;4952768;28;20038;-79
2021/08/18 12:10:39;;;;;;;1.42;1.23;;;;;;;19.75;63.31;98961.81;4952548;28;20031;-73
2021/08/18 12:13:12;;;;;;;1.15;1.02;;;;;;;19.76;64.52;98968.75;4952409;28;20388;-78
2021/08/18 12:15:45;;;;;;;2.75;1.45;;;;;;;19.84;65.62;98964.88;4951861;28;20108;-73
2021/08/18 12:18:33;;;;;;;0.90;0.90;;;;;;;20.76;61.64;98961.59;4952612;28;20022;-73
2021/08/18 12:21:27;;;;;;;1.30;1.10;;;;;;;21.98;59.32;98952.66;4952320;28;21345;-73
2021/08/18 12:23:58;;;;;;;1.30;1.20;;;;;;;23.41;54.40;98946.97;4952513;28;20042;-79
2021/08/18 12:26:35;;;;;;;1.20;1.10;;;;;;;23.51;54.12;98948.03;4951433;28;20038;-79
2021/08/18 12:29:03;;;;;;;2.45;1.00;;;;;;;22.90;53.49;98947.69;4952279;28;20038;-73
2021/08/18 12:31:56;;;;;;;0.85;0.80;;;;;;;22.90;54.83;98949.47;4951665;28;20027;-73
2021/08/18 12:34:34;;;;;;;0.80;0.80;;;;;;;22.68;53.74;98942.94;4951301;28;20031;-73
2021/08/18 12:37:07;;;;;;;1.27;1.17;;;;;;;22.12;56.22;98951.81;4952262;28;20030;-79
2021/08/18 12:39:41;;;;;;;1.00;1.00;;;;;;;22.21;57.65;98953.91;4951007;28;20031;-78
2021/08/18 12:42:09;;;;;;;8.45;6.03;;;;;;;22.52;55.96;98948.34;4952042;28;20026;-73
2021/08/18 12:44:38;;;;;;;2.78;2.55;;;;;;;22.57;56.85;98937.50;4952135;28;20174;-78
2021/08/18 12:47:13;;;;;;;1.27;0.98;;;;;;;22.67;56.01;98935.94;4949825;28;20121;-73
2021/08/18 12:49:49;;;;;;;1.10;1.00;;;;;;;22.25;57.24;98940.41;4949735;28;20093;-79
2021/08/18 12:52:16;;;;;;;1.73;0.90;;;;;;;21.92;58.01;98931.94;4951584;28;20480;-79
2021/08/18 12:54:42;;;;;;;0.85;0.70;;;;;;;21.58;58.63;98938.41;4951351;28;20050;-78
2021/08/18 12:57:07;;;;;;;1.33;1.23;;;;;;;21.46;58.67;98934.72;4951179;28;20035;-73
2021/08/18 12:59:37;;;;;;;1.48;1.30;;;;;;;20.71;62.18;98937.28;4951836;28;20037;-79
2021/08/18 13:02:04;;;;;;;0.95;0.95;;;;;;;20.09;67.72;98938.97;4950428;28;20090;-78
2021/08/18 13:04:30;;;;;;;1.20;1.10;;;;;;;19.69;72.00;98940.25;4951212;28;20038;-73
2021/08/18 13:06:55;;;;;;;3.03;1.48;;;;;;;19.72;69.72;98940.91;4951365;28;20027;-79
2021/08/18 13:09:20;;;;;;;1.58;1.48;;;;;;;19.85;71.67;98935.03;4951277;28;20346;-73
2021/08/18 13:11:48;;;;;;;1.45;0.95;;;;;;;20.14;71.17;98941.34;4950375;28;20393;-73
2021/08/18 13:14:14;;;;;;;3.67;1.10;;;;;;;20.85;69.24;98922.50;4950632;28;20030;-78
2021/08/18 13:16:39;;;;;;;1.10;0.82;;;;;;;21.67;64.30;98933.44;4950382;28;20400;-79
2021/08/18 13:19:05;;;;;;;2.03;1.10;;;;;;;22.48;60.21;98919.59;4950731;28;20057;-79
2021/08/18 13:21:30;;;;;;;1.40;1.05;;;;;;;22.62;60.40;98924.81;4951339;28;20089;-73
2021/08/18 13:23:55;;;;;;;2.20;0.73;;;;;;;22.45;56.79;98919.81;4950737;28;20030;-73
2021/08/18 13:26:21;;;;;;;6.70;5.45;;;;;;;22.24;57.77;98916.72;4950018;28;20027;-78
2021/08/18 13:28:46;;;;;;;1.13;0.82;;;;;;;21.27;61.46;98925.25;4951068;28;20035;-73
2021/08/18 13:31:11;;;;;;;1.27;0.88;;;;;;;20.52;61.36;98915.56;4950326;28;20039;-79
2021/08/18 13:33:37;;;;;;;0.80;0.80;;;;;;;20.20;61.82;98915.53;4948673;28;20041;-73
2021/08/18 13:36:03;;;;;;;0.88;0.88;;;;;;;20.37;64.92;98909.34;4949227;28;20019;-79
2021/08/18 13:38:29;;;;;;;1.27;0.73;;;;;;;20.88;61.44;98903.84;4949080;28;20117;-79
2021/08/18 13:40:55;;;;;;;0.80;0.80;;;;;;;20.84;63.92;98905.84;4950752;28;20123;-78
2021/08/18 13:43:20;;;;;;;3.42;1.73;;;;;;;21.21;59.92;98904.50;4950662;28;20039;-73
2021/08/18 13:45:45;;;;;;;2.58;1.10;;;;;;;21.51;61.01;98903.63;4950716;28;20504;-73
2021/08/18 13:48:11;;;;;;;1.10;1.00;;;;;;;21.09;59.87;98894.72;4948297;28;20031;-73
2021/08/18 13:50:36;;;;;;;1.10;1.00;;;;;;;21.03;60.30;98897.69;4950956;28;20065;-79
2021/08/18 13:53:02;;;;;;;2.10;1.48;;;;;;;20.86;62.73;98892.56;4950600;28;20035;-79
2021/08/18 13:55:27;;;;;;;0.70;0.70;;;;;;;20.78;62.01;98891.22;4950923;28;20031;-73
2021/08/18 13:57:52;;;;;;;1.83;1.27;;;;;;;20.83;61.24;98896.22;4950083;28;20031;-78
2021/08/18 14:00:18;;;;;;;1.17;1.08;;;;;;;20.95;62.04;98895.53;4950075;28;20027;-79
2021/08/18 14:02:43;;;;;;;4.07;1.05;;;;;;;21.04;60.23;98891.50;4950700;28;20090;-79
2021/08/18 14:05:09;;;;;;;2.28;0.80;;;;;;;21.32;58.75;98889.88;4950118;28;20448;-78
2021/08/18 14:07:36;;;;;;;1.60;1.20;;;;;;;21.69;59.05;98897.25;4950083;28;20481;-79
2021/08/18 14:10:02;;;;;;;1.17;0.90;;;;;;;21.87;57.36;98897.06;4949482;28;20042;-79
2021/08/18 14:12:27;;;;;;;1.33;0.88;;;;;;;22.10;58.80;98887.69;4951196;28;20051;-74
2021/08/18 14:14:52;;;;;;;0.85;0.80;;;;;;;22.12;56.58;98876.13;4950812;28;20518;-72
2021/08/18 14:17:18;;;;;;;1.00;0.90;;;;;;;22.31;56.64;98879.28;4951012;28;20035;-72
2021/08/18 14:19:43;;;;;;;1.23;0.93;;;;;;;21.92;57.44;98884.44;4950621;28;20030;-79
2021/08/18 14:22:09;;;;;;;1.20;1.00;;;;;;;22.13;58.30;98872.53;4949149;28;20032;-79
2021/08/18 14:24:34;;;;;;;1.05;0.95;;;;;;;22.32;56.11;98873.06;4951130;28;20117;-73
2021/08/18 14:26:59;;;;;;;0.80;0.80;;;;;;;22.21;56.00;98869.44;4950841;28;20054;-73
2021/08/18 14:29:26;;;;;;;0.90;0.80;;;;;;;22.03;57.18;98871.41;4948141;28;20070;-79
2021/08/18 14:31:53;;;;;;;2.28;0.90;;;;;;;22.30;57.73;98868.84;4949384;28;20031;-78
2021/08/18 14:34:19;;;;;;;0.75;0.75;;;;;;;22.09;58.12;98865.72;4949648;28;20058;-78
2021/08/18 14:36:44;;;;;;;0.73;0.73;;;;;;;21.89;58.71;98869.63;4950474;28;20516;-78
2021/08/18 14:39:11;;;;;;;0.90;0.90;;;;;;;21.73;58.41;98869.75;4950484;28;20035;-78
2021/08/18 14:41:36;;;;;;;1.00;0.90;;;;;;;21.76;58.04;98874.00;4949636;28;20031;-79
2021/08/18 14:44:01;;;;;;;8.88;7.50;;;;;;;21.58;57.43;98864.59;4947740;28;20138;-72
2021/08/18 14:46:27;;;;;;;4.82;1.42;;;;;;;21.05;59.06;98866.84;4949788;28;20031;-73
2021/08/18 14:48:52;;;;;;;5.05;1.63;;;;;;;21.01;59.69;98870.59;4950421;28;20067;-79
2021/08/18 14:51:17;;;;;;;5.20;1.00;;;;;;;21.25;59.58;98863.88;4950368;28;20105;-73
2021/08/18 14:53:44;;;;;;;1.25;0.93;;;;;;;21.53;58.17;98867.50;4949631;28;20498;-73
2021/08/18 14:56:09;;;;;;;3.35;0.80;;;;;;;21.63;57.69;98873.91;4949422;28;20031;-78
2021/08/18 14:58:35;;;;;;;1.73;1.08;;;;;;;21.91;57.56;98867.75;4965001;28;20366;-73
2021/08/18 15:01:00;;;;;;;4.97;3.63;;;;;;;21.64;57.64;98859.75;4951262;28;20027;-78
2021/08/18 15:03:25;;;;;;;1.45;1.02;;;;;;;21.74;58.03;98860.88;4952587;28;20126;-73
2021/08/18 15:05:51;;;;;;;1.90;0.90;;;;;;;21.61;57.74;98854.66;4953230;28;20027;-73
2021/08/18 15:08:16;;;;;;;2.20;0.80;;;;;;;21.36;57.92;98854.50;4953003;28;20110;-72
2021/08/18 15:10:42;;;;;;;6.32;1.05;;;;;;;21.42;58.76;98854.97;4953714;28;20404;-73
2021/08/18 15:13:08;;;;;;;1.67;1.13;;;;;;;21.44;57.61;98853.09;4953489;28;20079;-78
2021/08/18 15:15:34;;;;;;;2.08;1.00;;;;;;;21.34;59.04;98856.38;4953842;28;20059;-73
2021/08/18 15:17:59;;;;;;;2.58;0.98;;;;;;;21.10;59.02;98853.41;4953060;28;20038;-78
2021/08/18 15:20:24;;;;;;;7.50;1.33;;;;;;;20.89;60.64;98859.00;4951253;28;21340;-78
2021/08/18 15:22:50;;;;;;;1.02;0.98;;;;;;;20.87;60.63;98862.66;4952487;28;20114;-78
2021/08/18 15:25:16;;;;;;;2.88;1.10;;;;;;;20.90;61.93;98859.84;4953531;28;20026;-79
2021/08/18 15:27:49;;;;;;;1.55;1.10;;;;;;;20.77;60.77;98857.94;4953053;28;20078;-79
2021/08/18 15:30:20;;;;;;;0.85;0.85;;;;;;;20.49;62.30;98868.34;4950224;28;20433;-73
2021/08/18 15:32:48;;;;;;;1.67;1.00;;;;;;;20.52;62.71;98863.78;4952165;28;20440;-72
2021/08/18 15:35:13;;;;;;;5.63;1.23;;;;;;;20.02;63.72;98869.22;4952906;28;20054;-78
2021/08/18 15:37:41;;;;;;;2.25;1.10;;;;;;;20.42;63.76;98872.25;4952224;28;20876;-78
2021/08/18 15:40:08;;;;;;;2.35;1.20;;;;;;;20.51;64.23;98866.50;4953529;28;20027;-73
2021/08/18 15:42:34;;;;;;;3.83;1.10;;;;;;;20.53;63.03;98870.72;4951140;28;20027;-73
2021/08/18 15:45:00;;;;;;;1.58;0.95;;;;;;;20.58;63.36;98862.56;4951804;28;20377;-79
2021/08/18 15:47:25;;;;;;;2.28;1.35;;;;;;;20.55;62.15;98868.03;4953297;28;20058;-78